Terminal Aerodrome Forecast
Issued by NWS Wilmington, OH

Current Version | Previous Version | Text Only | Print | Product List | Glossary Off
Versions: 1 2 3 4 5 6 7 8 9 10 11 12 13 14 15 16

000
FTUS41 KILN 252301 AAB
TAFILN
TAF AMD
KILN 252301Z 2523/2618 29012G20KT P6SM FEW070
     FM260100 26006KT P6SM SCT200
     FM261500 27011KT P6SM SCT120=

USA.gov is the U.S. government's official web portal to all federal, state and local government web resources and services.